Impacts TAF Board INFO
FOR SITUATIONAL AWARENESS. NOT TO BE USED FOR FLIGHT PLANNING PURPOSES.
IDs:

KCLE - Cleveland/Hopkins In, OH, US

Issued at 0539 UTC 20 Nov 2017
Updated at 0740 UTC 20 Nov 2017
Potential Impact None Slight Moderate High
Time<<20/20Z 20/21Z 20/22Z 20/23Z 21/00Z 21/01Z 21/02Z 21/03Z 21/04Z 21/05Z 21/06Z 21/07Z 21/08Z>>
Type PRVL PRVL PRVL PRVL PRVL PRVL PRVL PRVL PRVL PRVL PRVL PRVL PRVL
VIS >6 >6 >6 >6 >6 >6 >6 >6 >6 >6 >6 >6 >6
CIG -- -- -- -- -- -- -- -- -- -- -- -- --
Cover SCT SCT SCT SCT SCT SCT SCT SCT SCT SCT SCT SCT SCT
FltCat VFR VFR VFR VFR VFR VFR VFR VFR VFR VFR VFR VFR VFR
WX -- -- -- -- -- -- -- -- -- -- -- -- --
WDir 220 210 210 210 210 210 210 210 210 210 210 210 210
WSpd 10 15 15 15 15 15 15 15 15 15 15 15 15
WGst -- 25 25 25 25 25 25 25 25 25 25 25 25

Raw TAF
KCLE 200539Z 2006/2112 26012G20KT P6SM SCT025 OVC035
  FM201100 23010KT P6SM SCT035 BKN120
  FM201300 22010KT P6SM FEW120 SCT250
  FM202100 21015G25KT P6SM SCT250


METAR Board
Radar Display
Forecast Discussion

FOR SITUATIONAL AWARENESS. NOT TO BE USED FOR FLIGHT PLANNING PURPOSES.